createdAt,value
2023-03-23T15:57:52.623Z,10.67
2023-03-23T16:00:21.154Z,10.51
2023-03-23T16:02:53.225Z,10.28
2023-03-23T16:05:22.394Z,10.17
2023-03-23T16:07:50.307Z,10.00
2023-03-23T16:10:19.800Z,10.02
2023-03-23T16:12:46.976Z,9.91
2023-03-23T16:15:14.543Z,9.68
2023-03-23T16:17:41.758Z,9.49
2023-03-23T16:20:17.837Z,9.23
2023-03-23T16:22:44.530Z,8.93
2023-03-23T16:25:11.621Z,8.77
2023-03-23T16:27:40.073Z,8.63
2023-03-23T16:30:22.631Z,8.37
2023-03-23T16:32:49.418Z,8.37
2023-03-23T16:35:16.787Z,8.33
2023-03-23T16:37:48.449Z,8.32
2023-03-23T16:40:16.848Z,8.24
2023-03-23T16:42:43.925Z,8.18
2023-03-23T16:45:13.172Z,8.03
2023-03-23T16:47:40.708Z,8.02
2023-03-23T16:50:11.800Z,8.01
2023-03-23T16:52:46.178Z,7.91
2023-03-23T16:55:15.861Z,7.91
2023-03-23T16:57:43.481Z,7.71
2023-03-23T17:00:15.713Z,7.51
2023-03-23T17:02:43.618Z,7.50
2023-03-23T17:05:11.456Z,7.53
2023-03-23T17:07:42.410Z,7.39
2023-03-23T17:10:11.114Z,7.36
2023-03-23T17:12:37.806Z,7.29
2023-03-23T17:15:05.491Z,7.12
2023-03-23T17:17:32.598Z,7.09
2023-03-23T17:20:01.167Z,7.21
2023-03-23T17:22:29.209Z,7.36
2023-03-23T17:24:57.496Z,7.34
2023-03-23T17:27:25.128Z,7.30
2023-03-23T17:29:52.386Z,7.23
2023-03-23T17:32:20.782Z,7.19
2023-03-23T17:34:47.486Z,7.08
2023-03-23T17:37:14.274Z,7.16
2023-03-23T17:39:43.136Z,7.16
2023-03-23T17:42:10.884Z,7.12
2023-03-23T17:44:37.696Z,7.13
2023-03-23T17:47:04.625Z,7.16
2023-03-23T17:49:31.737Z,7.31
2023-03-23T17:51:59.529Z,7.45
2023-03-23T17:54:26.542Z,7.40
2023-03-23T17:56:53.766Z,7.66
2023-03-23T17:59:23.400Z,7.65
2023-03-23T18:01:50.502Z,7.70
2023-03-23T18:04:17.287Z,7.88
2023-03-23T18:06:44.100Z,7.73
2023-03-23T18:09:11.077Z,7.74
2023-03-23T18:11:37.817Z,7.58
2023-03-23T18:14:05.097Z,7.57
2023-03-23T18:16:31.908Z,7.49
2023-03-23T18:18:58.727Z,7.45
2023-03-23T18:21:27.139Z,7.58
2023-03-23T18:23:59.571Z,7.69
2023-03-23T18:26:27.777Z,7.83
2023-03-23T18:28:54.619Z,7.91
2023-03-23T18:31:21.884Z,7.76
2023-03-23T18:33:51.339Z,7.78
2023-03-23T18:36:21.241Z,7.98
2023-03-23T18:38:48.830Z,8.11
2023-03-23T18:41:17.367Z,7.99
2023-03-23T18:43:44.539Z,7.83
2023-03-23T18:46:11.247Z,7.85
2023-03-23T18:48:37.979Z,7.89
2023-03-23T18:51:05.195Z,7.92
2023-03-23T18:53:32.271Z,7.55
2023-03-23T18:56:11.236Z,7.61
2023-03-23T18:58:38.484Z,7.61
2023-03-23T19:01:12.382Z,7.65
2023-03-23T19:03:40.527Z,7.67
2023-03-23T19:06:15.481Z,7.50
2023-03-23T19:08:45.330Z,7.30
2023-03-23T19:11:13.162Z,7.33
2023-03-23T19:13:47.123Z,7.40
2023-03-23T19:16:21.105Z,7.28
2023-03-23T19:18:47.885Z,7.36
2023-03-23T19:21:17.567Z,7.28
2023-03-23T19:23:47.252Z,7.00
2023-03-23T19:26:23.377Z,6.97
2023-03-23T19:31:22.734Z,7.19
2023-03-23T19:33:49.582Z,7.24
2023-03-23T19:36:16.997Z,7.27
2023-03-23T19:38:44.057Z,7.21
2023-03-23T19:41:11.180Z,7.10
2023-03-23T19:43:38.075Z,6.98
2023-03-23T19:46:05.180Z,6.76
2023-03-23T19:48:31.993Z,6.72
2023-03-23T19:50:58.902Z,6.56
2023-03-23T19:53:26.727Z,6.56
2023-03-23T19:55:53.768Z,6.43
2023-03-23T19:58:21.223Z,6.23
2023-03-23T20:00:48.626Z,6.56
2023-03-23T20:03:17.308Z,6.65
2023-03-23T20:05:45.250Z,6.59
2023-03-23T20:08:12.712Z,6.48
2023-03-23T20:10:41.124Z,6.47
2023-03-23T20:13:08.296Z,6.29
2023-03-23T20:15:34.989Z,6.17
2023-03-23T20:18:02.090Z,6.27
2023-03-23T20:20:36.652Z,6.26
2023-03-23T20:23:04.688Z,6.07
2023-03-23T20:25:31.478Z,6.25
2023-03-23T20:27:58.281Z,6.15
2023-03-23T20:30:25.736Z,5.95
2023-03-23T20:32:53.721Z,6.32
2023-03-23T20:35:22.517Z,6.19
2023-03-23T20:37:50.712Z,6.16
2023-03-23T20:40:18.715Z,6.21
2023-03-23T20:42:45.553Z,6.20
2023-03-23T20:45:13.384Z,6.09
2023-03-23T20:47:41.364Z,6.08
2023-03-23T20:50:10.154Z,5.98
2023-03-23T20:52:37.228Z,5.81
2023-03-23T20:55:04.649Z,5.53
2023-03-23T20:57:31.329Z,5.36
2023-03-23T20:59:58.305Z,5.55
2023-03-23T21:02:29.878Z,5.59
2023-03-23T21:04:58.265Z,5.71
2023-03-23T21:07:27.462Z,5.70
2023-03-23T21:09:56.240Z,5.66
2023-03-23T21:12:22.960Z,5.72
2023-03-23T21:14:49.738Z,5.71
2023-03-23T21:17:16.435Z,5.75
2023-03-23T21:19:43.430Z,5.64
2023-03-23T21:22:14.667Z,4.76
2023-03-23T21:24:41.379Z,4.72
2023-03-23T21:27:08.246Z,4.83
2023-03-23T21:29:34.883Z,4.58
2023-03-23T21:32:08.098Z,4.45
2023-03-23T21:34:36.813Z,4.58
2023-03-23T21:37:03.738Z,4.58
2023-03-23T21:39:30.429Z,4.69
2023-03-23T21:41:59.597Z,4.55
2023-03-23T21:44:26.451Z,4.64
2023-03-23T21:46:54.611Z,4.70
2023-03-23T21:49:21.821Z,4.61
2023-03-23T21:51:49.567Z,4.45
2023-03-23T21:54:16.352Z,4.48
2023-03-23T21:56:43.257Z,4.54
2023-03-23T21:59:09.972Z,4.29
2023-03-23T22:01:37.330Z,4.08
2023-03-23T22:04:05.429Z,3.88
2023-03-23T22:06:34.553Z,3.99
2023-03-23T22:09:05.317Z,3.87
2023-03-23T22:11:32.944Z,3.77
2023-03-23T22:14:00.871Z,3.88
2023-03-23T22:16:28.139Z,3.79
2023-03-23T22:18:56.949Z,3.74
2023-03-23T22:21:26.434Z,3.37
2023-03-23T22:23:55.422Z,3.26
2023-03-23T22:26:22.601Z,3.48
2023-03-23T22:28:51.044Z,3.14
2023-03-23T22:31:23.730Z,3.16
2023-03-23T22:33:56.114Z,2.98
2023-03-23T22:36:28.289Z,2.71
2023-03-23T22:38:56.483Z,3.05
2023-03-23T22:41:26.227Z,3.05
2023-03-23T22:43:53.317Z,3.06
2023-03-23T22:46:21.063Z,2.86
2023-03-23T22:48:48.127Z,2.89
2023-03-23T22:51:16.979Z,2.65
2023-03-23T22:53:44.296Z,2.70
2023-03-23T22:56:11.758Z,2.96
2023-03-23T22:58:38.892Z,3.07
2023-03-23T23:01:09.216Z,3.01
2023-03-23T23:03:36.930Z,2.84
2023-03-23T23:06:04.393Z,2.99
2023-03-23T23:08:32.994Z,3.10
2023-03-23T23:11:02.131Z,2.84
2023-03-23T23:13:31.218Z,2.69
2023-03-23T23:16:01.666Z,2.65
2023-03-23T23:18:30.499Z,2.59
2023-03-23T23:20:59.811Z,2.65
2023-03-23T23:23:27.949Z,2.51
2023-03-23T23:25:54.918Z,2.56
2023-03-23T23:28:22.958Z,2.67
2023-03-23T23:30:50.965Z,2.58
2023-03-23T23:33:18.855Z,2.32
2023-03-23T23:35:46.414Z,2.42
2023-03-23T23:38:13.602Z,2.17
2023-03-23T23:40:44.414Z,2.30
2023-03-23T23:43:13.273Z,2.26
2023-03-23T23:45:40.922Z,2.29
2023-03-23T23:48:08.447Z,2.23
2023-03-23T23:50:35.486Z,2.27
2023-03-23T23:53:02.228Z,2.23
2023-03-23T23:55:28.937Z,2.33
2023-03-23T23:57:56.177Z,2.34
